createdAt,value
2022-12-11T00:01:33.327Z,18.80
2022-12-11T00:04:22.925Z,18.10
2022-12-11T00:16:18.173Z,18.63
2022-12-11T00:19:00.160Z,17.47
2022-12-11T00:21:42.225Z,18.23
2022-12-11T00:24:21.435Z,19.00
2022-12-11T00:27:00.463Z,18.63
2022-12-11T00:30:33.320Z,19.67
2022-12-11T00:33:39.182Z,18.93
2022-12-11T00:39:33.081Z,18.87
2022-12-11T00:42:25.053Z,20.23
2022-12-11T01:00:55.026Z,18.37
2022-12-11T01:04:42.407Z,18.87
2022-12-11T01:12:00.820Z,19.03
2022-12-11T01:15:26.902Z,18.77
2022-12-11T01:18:34.932Z,18.87
2022-12-11T01:41:58.726Z,18.13
2022-12-11T01:45:11.895Z,18.60
2022-12-11T01:47:42.774Z,19.03
2022-12-11T01:54:21.343Z,17.00
2022-12-11T02:01:22.796Z,17.33
2022-12-11T02:03:52.279Z,18.23
2022-12-11T02:06:35.694Z,17.67
2022-12-11T02:09:04.808Z,18.50
2022-12-11T02:11:40.981Z,18.07
2022-12-11T02:14:17.399Z,18.40
2022-12-11T02:16:51.893Z,17.73
2022-12-11T02:19:38.856Z,18.87
2022-12-11T02:22:12.382Z,18.23
2022-12-11T02:24:56.596Z,17.80
2022-12-11T02:27:32.918Z,16.37
2022-12-11T02:30:05.831Z,18.87
2022-12-11T02:32:39.644Z,18.40
2022-12-11T02:35:13.995Z,18.00
2022-12-11T02:37:45.072Z,17.80
2022-12-11T02:40:16.065Z,17.93
2022-12-11T02:42:49.326Z,18.80
2022-12-11T02:45:20.469Z,18.83
2022-12-11T02:47:50.612Z,18.07
2022-12-11T02:50:21.971Z,19.13
2022-12-11T02:52:55.774Z,20.20
2022-12-11T02:55:27.216Z,20.30
2022-12-11T02:58:02.801Z,20.03
2022-12-11T03:00:40.855Z,21.20
2022-12-11T03:03:11.477Z,22.13
2022-12-11T03:05:40.244Z,21.67
2022-12-11T03:08:08.261Z,23.50
2022-12-11T03:10:36.193Z,21.83
2022-12-11T03:13:05.446Z,21.43
2022-12-11T03:15:40.916Z,21.60
2022-12-11T03:18:17.399Z,20.97
2022-12-11T03:20:48.481Z,21.57
2022-12-11T03:23:23.133Z,21.73
2022-12-11T03:25:55.901Z,19.83
2022-12-11T03:28:30.253Z,21.53
2022-12-11T03:31:04.330Z,20.33
2022-12-11T03:33:38.313Z,20.77
2022-12-11T03:36:10.817Z,19.90
2022-12-11T03:38:42.747Z,19.27
2022-12-11T03:41:13.488Z,18.77
2022-12-11T03:43:42.356Z,18.80
2022-12-11T03:46:14.471Z,19.53
2022-12-11T03:48:46.784Z,19.07
2022-12-11T03:51:16.544Z,20.63
2022-12-11T03:53:45.073Z,18.53
2022-12-11T03:56:15.505Z,19.63
2022-12-11T03:58:43.371Z,19.10
2022-12-11T04:01:13.074Z,19.37
2022-12-11T04:03:40.959Z,18.03
2022-12-11T04:06:09.098Z,18.30
2022-12-11T04:08:37.256Z,18.53
2022-12-11T04:11:23.563Z,18.37
2022-12-11T04:14:11.435Z,18.60
2022-12-11T04:16:39.696Z,19.57
2022-12-11T04:19:24.973Z,19.17
2022-12-11T04:22:10.213Z,18.73
2022-12-11T04:24:39.206Z,19.10
2022-12-11T04:27:07.469Z,18.53
2022-12-11T04:29:35.350Z,18.53
2022-12-11T04:32:06.959Z,18.67
2022-12-11T04:34:34.862Z,19.77
2022-12-11T04:37:02.826Z,18.90
2022-12-11T04:39:30.690Z,19.30
2022-12-11T04:41:58.637Z,19.47
2022-12-11T04:44:26.571Z,19.10
2022-12-11T04:46:54.374Z,18.40
2022-12-11T04:49:23.523Z,18.70
2022-12-11T04:51:51.453Z,18.77
2022-12-11T04:54:19.323Z,19.50
2022-12-11T04:56:47.231Z,20.67
2022-12-11T04:59:15.262Z,20.13
2022-12-11T05:01:43.467Z,20.53
2022-12-11T05:04:11.360Z,19.93
2022-12-11T05:06:40.639Z,20.07
2022-12-11T05:09:12.042Z,20.47
2022-12-11T05:11:40.437Z,19.83
2022-12-11T05:14:08.295Z,19.70
2022-12-11T05:16:36.644Z,20.67
2022-12-11T05:19:04.611Z,19.80
2022-12-11T05:21:35.249Z,20.20
2022-12-11T05:24:05.532Z,20.53
2022-12-11T05:26:33.402Z,20.60
2022-12-11T05:29:01.177Z,20.80
2022-12-11T05:31:29.516Z,20.73
2022-12-11T05:33:57.521Z,20.87
2022-12-11T05:36:29.104Z,20.57
2022-12-11T05:38:58.942Z,21.27
2022-12-11T05:41:31.308Z,20.03
2022-12-11T05:43:59.444Z,20.03
2022-12-11T05:46:29.506Z,20.77
2022-12-11T05:48:59.764Z,20.03
2022-12-11T05:51:28.126Z,21.10
2022-12-11T05:53:57.225Z,22.63
2022-12-11T05:56:27.287Z,21.30
2022-12-11T05:58:57.779Z,22.03
2022-12-11T06:01:27.973Z,22.77
2022-12-11T06:03:57.486Z,21.63
2022-12-11T06:06:26.641Z,21.43
2022-12-11T06:08:56.218Z,21.63
2022-12-11T06:11:26.367Z,21.57
2022-12-11T06:13:55.823Z,22.73
2022-12-11T06:16:25.694Z,21.37
2022-12-11T06:18:58.687Z,20.57
2022-12-11T06:21:28.216Z,21.07
2022-12-11T06:24:00.511Z,21.47
2022-12-11T06:26:30.821Z,20.83
2022-12-11T06:29:01.674Z,21.63
2022-12-11T06:31:30.706Z,22.47
2022-12-11T06:33:58.788Z,21.40
2022-12-11T06:36:30.133Z,22.03
2022-12-11T06:38:58.782Z,22.83
2022-12-11T06:41:26.870Z,22.33
2022-12-11T06:43:54.795Z,21.43
2022-12-11T06:46:24.537Z,22.20
2022-12-11T06:48:52.593Z,22.00
2022-12-11T06:51:23.037Z,22.23
2022-12-11T06:53:53.857Z,21.47
2022-12-11T06:56:23.087Z,22.43
2022-12-11T06:58:51.850Z,21.90
2022-12-11T07:01:21.830Z,22.57
2022-12-11T07:03:53.558Z,21.80
2022-12-11T07:06:21.659Z,22.90
2022-12-11T07:08:49.884Z,23.23
2022-12-11T07:11:19.437Z,23.70
2022-12-11T07:13:47.947Z,22.30
2022-12-11T07:16:17.403Z,22.43
2022-12-11T07:18:48.743Z,21.77
2022-12-11T07:21:19.372Z,22.07
2022-12-11T07:23:48.017Z,22.07
2022-12-11T07:26:17.755Z,21.57
2022-12-11T07:28:46.366Z,23.07
2022-12-11T07:31:16.305Z,23.47
2022-12-11T07:33:48.243Z,23.43
2022-12-11T07:36:18.012Z,23.23
2022-12-11T07:38:46.393Z,22.57
2022-12-11T07:41:16.226Z,22.57
2022-12-11T07:43:45.391Z,22.57
2022-12-11T07:46:15.687Z,22.80
2022-12-11T07:48:45.635Z,22.47
2022-12-11T07:51:16.309Z,24.00
2022-12-11T07:53:46.705Z,23.70
2022-12-11T07:56:15.773Z,23.40
2022-12-11T07:58:43.799Z,23.10
2022-12-11T08:01:13.483Z,23.17
2022-12-11T08:03:42.202Z,23.17
2022-12-11T08:06:10.939Z,22.83
2022-12-11T08:08:39.608Z,23.73
2022-12-11T08:11:11.331Z,23.93
2022-12-11T08:13:39.527Z,23.53
2022-12-11T08:16:09.263Z,25.07
2022-12-11T08:18:38.204Z,24.37
2022-12-11T08:21:07.679Z,23.40
2022-12-11T08:23:36.141Z,23.80
2022-12-11T08:26:05.165Z,24.10
2022-12-11T08:28:34.787Z,25.13
2022-12-11T08:31:05.195Z,24.00
2022-12-11T08:33:33.698Z,24.20
2022-12-11T08:36:04.162Z,24.07
2022-12-11T08:38:32.450Z,23.40
2022-12-11T08:41:00.511Z,23.80
2022-12-11T08:43:28.534Z,44.97
2022-12-11T08:45:57.868Z,32.40
2022-12-11T08:48:27.051Z,26.30
2022-12-11T08:51:00.561Z,25.33
2022-12-11T08:53:29.014Z,25.33
2022-12-11T08:56:02.101Z,24.87
2022-12-11T08:58:30.793Z,24.77
2022-12-11T09:01:00.262Z,24.10
2022-12-11T09:03:31.431Z,24.90
2022-12-11T09:05:59.391Z,23.77
2022-12-11T09:08:27.293Z,23.73
2022-12-11T09:10:55.336Z,23.87
2022-12-11T09:13:23.527Z,22.80
2022-12-11T09:15:51.680Z,23.13
2022-12-11T09:18:21.130Z,24.00
2022-12-11T09:20:49.022Z,25.03
2022-12-11T09:23:17.013Z,23.53
2022-12-11T09:25:44.903Z,24.93
2022-12-11T09:28:12.920Z,24.17
2022-12-11T09:30:40.932Z,24.60
2022-12-11T09:33:09.022Z,24.40
2022-12-11T09:35:38.391Z,23.23
2022-12-11T09:38:06.770Z,24.70
2022-12-11T09:40:34.660Z,24.53
2022-12-11T09:43:08.038Z,23.63
2022-12-11T09:45:36.358Z,23.33
2022-12-11T09:48:04.426Z,22.60
2022-12-11T09:50:34.136Z,23.07
2022-12-11T09:53:09.572Z,24.10
2022-12-11T09:55:44.267Z,24.07
2022-12-11T09:58:23.555Z,23.37
2022-12-11T10:00:59.129Z,24.63
2022-12-11T10:03:57.032Z,24.07
2022-12-11T10:06:29.481Z,23.53
2022-12-11T10:09:11.902Z,23.93
2022-12-11T10:11:56.971Z,24.03
2022-12-11T10:14:36.305Z,23.23
2022-12-11T10:17:10.424Z,23.50
2022-12-11T10:19:39.219Z,23.60
2022-12-11T10:22:15.270Z,25.43
2022-12-11T10:27:42.027Z,25.57
2022-12-11T10:30:18.137Z,24.47
2022-12-11T10:32:52.841Z,24.20
2022-12-11T10:35:30.579Z,28.13
2022-12-11T10:38:10.714Z,25.57
2022-12-11T10:40:43.902Z,25.97
2022-12-11T10:43:11.930Z,25.17
2022-12-11T10:45:39.872Z,23.90
2022-12-11T10:48:14.000Z,24.33
2022-12-11T10:50:46.883Z,25.10
2022-12-11T10:53:22.121Z,24.70
2022-12-11T10:55:52.390Z,24.17
2022-12-11T10:58:22.560Z,24.63
2022-12-11T11:01:03.710Z,23.83
2022-12-11T11:03:32.115Z,24.77
2022-12-11T11:06:07.578Z,24.80
2022-12-11T11:08:42.481Z,25.87
2022-12-11T11:11:23.439Z,25.17
2022-12-11T11:13:51.742Z,27.10
2022-12-11T11:16:23.125Z,26.17
2022-12-11T11:18:58.988Z,24.93
2022-12-11T11:21:30.167Z,25.60
2022-12-11T11:23:58.365Z,24.67
2022-12-11T11:26:43.553Z,23.70
2022-12-11T11:29:27.307Z,23.20
2022-12-11T11:31:55.409Z,22.77
2022-12-11T11:34:23.301Z,22.23
2022-12-11T11:36:57.827Z,21.87
2022-12-11T11:39:32.483Z,23.13
2022-12-11T11:42:08.924Z,21.80
2022-12-11T11:44:42.288Z,21.27
2022-12-11T11:47:15.774Z,22.03
2022-12-11T11:49:54.682Z,20.77
2022-12-11T11:52:30.310Z,22.23
2022-12-11T11:55:10.317Z,22.40
2022-12-11T11:57:45.031Z,21.60
2022-12-11T12:00:22.792Z,22.50
2022-12-11T12:02:55.615Z,20.80
2022-12-11T12:05:28.303Z,20.93
2022-12-11T12:08:08.461Z,19.23
2022-12-11T12:10:45.219Z,17.67
2022-12-11T12:13:48.210Z,17.07
2022-12-11T12:16:50.946Z,17.93
2022-12-11T12:19:17.603Z,18.90
2022-12-11T12:21:50.232Z,18.93
2022-12-11T12:24:30.889Z,17.70
2022-12-11T12:27:03.195Z,17.37
2022-12-11T12:29:48.046Z,18.13
2022-12-11T12:32:25.519Z,16.27
2022-12-11T12:35:06.364Z,16.47
2022-12-11T12:37:48.048Z,16.37
2022-12-11T12:40:24.120Z,17.97
2022-12-11T12:43:01.276Z,17.87
2022-12-11T12:45:36.648Z,16.77
2022-12-11T12:48:04.576Z,17.13
2022-12-11T12:50:39.498Z,16.70
2022-12-11T12:53:08.962Z,17.57
2022-12-11T12:55:38.022Z,17.60
2022-12-11T12:58:07.945Z,16.53
2022-12-11T13:00:39.756Z,15.63
2022-12-11T13:03:15.347Z,15.43
2022-12-11T13:05:45.598Z,16.43
2022-12-11T13:08:14.046Z,16.53
2022-12-11T13:10:43.997Z,14.93
2022-12-11T13:13:33.858Z,15.60
2022-12-11T13:16:28.609Z,14.43
2022-12-11T13:18:56.475Z,14.50
2022-12-11T13:21:31.752Z,13.20
2022-12-11T13:24:16.219Z,13.77
2022-12-11T13:26:44.815Z,14.93
2022-12-11T13:29:31.589Z,15.33
2022-12-11T13:32:02.423Z,16.23
2022-12-11T13:34:34.319Z,15.40
2022-12-11T13:37:04.694Z,15.83
2022-12-11T13:39:56.992Z,14.93
2022-12-11T13:42:31.039Z,15.30
2022-12-11T13:45:04.277Z,13.40
2022-12-11T13:47:34.428Z,13.37
2022-12-11T13:50:16.062Z,14.77
2022-12-11T13:52:54.981Z,15.13
2022-12-11T13:55:26.281Z,15.67
2022-12-11T13:57:54.415Z,16.30
2022-12-11T14:00:27.441Z,17.70
2022-12-11T14:03:02.967Z,17.37
2022-12-11T14:05:35.877Z,17.27
2022-12-11T14:08:09.482Z,15.40
2022-12-11T14:10:38.439Z,15.97
2022-12-11T14:13:19.021Z,17.77
2022-12-11T14:15:47.321Z,16.60
2022-12-11T14:18:21.982Z,17.40
2022-12-11T14:20:56.330Z,16.23
2022-12-11T14:23:26.700Z,15.63
2022-12-11T14:25:55.570Z,15.63
2022-12-11T14:28:27.541Z,16.27
2022-12-11T14:30:59.102Z,16.17
2022-12-11T14:33:32.536Z,16.10
2022-12-11T14:36:03.850Z,13.97
2022-12-11T14:38:36.661Z,14.63
2022-12-11T14:41:09.504Z,14.77
2022-12-11T14:43:43.476Z,14.83
2022-12-11T14:46:18.332Z,15.73
2022-12-11T14:48:54.859Z,15.17
2022-12-11T14:51:31.400Z,15.47
2022-12-11T14:53:59.779Z,14.70
2022-12-11T14:56:30.965Z,14.87
2022-12-11T14:59:02.084Z,15.70
2022-12-11T15:01:32.560Z,15.77
2022-12-11T15:04:07.872Z,15.90
2022-12-11T15:06:44.901Z,15.40
2022-12-11T15:09:27.154Z,15.17
2022-12-11T15:11:57.681Z,15.13
2022-12-11T15:14:27.005Z,15.33
2022-12-11T15:16:59.458Z,16.20
2022-12-11T15:19:32.471Z,17.53
2022-12-11T15:22:06.141Z,17.33
2022-12-11T15:24:39.102Z,16.80
2022-12-11T15:27:15.587Z,17.57
2022-12-11T15:29:43.543Z,17.37
2022-12-11T15:32:21.030Z,17.30
2022-12-11T15:34:55.723Z,17.10
2022-12-11T15:37:40.395Z,17.20
2022-12-11T15:40:10.468Z,17.27
2022-12-11T15:42:43.459Z,17.33
2022-12-11T15:45:18.323Z,17.23
2022-12-11T15:47:51.001Z,17.63
2022-12-11T15:50:23.661Z,17.23
2022-12-11T15:52:54.030Z,16.90
2022-12-11T15:55:23.922Z,17.53
2022-12-11T15:57:55.762Z,18.03
2022-12-11T16:00:27.578Z,16.80
2022-12-11T16:02:57.371Z,16.93
2022-12-11T16:05:27.735Z,16.33
2022-12-11T16:07:59.341Z,17.40
2022-12-11T16:10:28.344Z,17.23
2022-12-11T16:12:59.550Z,17.20
2022-12-11T16:15:28.286Z,16.13
2022-12-11T16:18:04.186Z,16.33
2022-12-11T16:20:34.825Z,15.93
2022-12-11T16:23:03.128Z,17.43
2022-12-11T16:25:33.387Z,17.33
2022-12-11T16:28:03.883Z,18.03
2022-12-11T16:30:33.950Z,17.40
2022-12-11T16:33:10.262Z,18.40
2022-12-11T16:35:42.831Z,18.13
2022-12-11T16:38:11.731Z,17.93
2022-12-11T16:40:40.401Z,19.87
2022-12-11T16:43:10.923Z,18.13
2022-12-11T16:45:42.053Z,18.67
2022-12-11T16:48:10.404Z,18.23
2022-12-11T16:50:41.970Z,20.07
2022-12-11T16:53:10.149Z,19.07
2022-12-11T16:55:40.928Z,20.43
2022-12-11T16:58:09.491Z,18.53
2022-12-11T17:00:37.734Z,19.50
2022-12-11T17:03:07.533Z,19.03
2022-12-11T17:05:38.611Z,18.13
2022-12-11T17:08:08.629Z,19.77
2022-12-11T17:10:40.913Z,17.57
2022-12-11T17:13:09.255Z,18.10
2022-12-11T17:15:41.263Z,17.93
2022-12-11T17:18:10.755Z,18.63
2022-12-11T17:20:41.741Z,17.97
2022-12-11T17:23:12.001Z,19.27
2022-12-11T17:25:43.646Z,20.07
2022-12-11T17:28:13.465Z,16.67
2022-12-11T17:30:42.694Z,18.57
2022-12-11T17:33:11.651Z,16.90
2022-12-11T17:35:40.226Z,18.73
2022-12-11T17:38:08.264Z,20.23
2022-12-11T17:40:41.570Z,18.37
2022-12-11T17:43:10.339Z,19.87
2022-12-11T17:45:43.163Z,20.43
2022-12-11T17:48:12.075Z,19.33
2022-12-11T17:50:42.694Z,21.07
2022-12-11T17:53:12.955Z,20.57
2022-12-11T17:55:43.916Z,20.90
2022-12-11T17:58:12.457Z,20.63
2022-12-11T18:00:45.814Z,20.97
2022-12-11T18:03:15.181Z,22.67
2022-12-11T18:05:44.572Z,21.40
2022-12-11T18:08:13.873Z,22.00
2022-12-11T18:10:47.605Z,21.43
2022-12-11T18:13:19.218Z,21.70
2022-12-11T18:15:48.619Z,21.93
2022-12-11T18:18:16.807Z,22.90
2022-12-11T18:20:44.930Z,22.37
2022-12-11T18:23:12.798Z,21.30
2022-12-11T18:25:40.889Z,21.73
2022-12-11T18:28:10.438Z,20.67
2022-12-11T18:30:38.873Z,22.10
2022-12-11T18:33:07.280Z,19.87
2022-12-11T18:35:35.353Z,21.30
2022-12-11T18:38:03.620Z,20.13
2022-12-11T18:40:31.570Z,20.67
2022-12-11T18:42:59.624Z,21.07
2022-12-11T18:45:29.084Z,18.83
2022-12-11T18:47:57.105Z,22.43
2022-12-11T18:50:25.358Z,20.03
2022-12-11T18:52:59.957Z,21.57
2022-12-11T18:55:29.263Z,20.10
2022-12-11T18:57:57.507Z,20.30
2022-12-11T19:00:25.951Z,21.13
2022-12-11T19:02:55.328Z,21.77
2022-12-11T19:05:23.293Z,21.80
2022-12-11T19:07:51.704Z,21.70
2022-12-11T19:10:20.108Z,22.27
2022-12-11T19:12:49.367Z,21.20
2022-12-11T19:15:23.357Z,22.47
2022-12-11T19:17:52.248Z,21.37
2022-12-11T19:23:09.643Z,21.03
2022-12-11T19:25:44.072Z,21.43
2022-12-11T19:28:12.812Z,21.37
2022-12-11T19:30:44.079Z,21.67
2022-12-11T19:33:12.348Z,21.20
2022-12-11T19:35:42.704Z,20.00
2022-12-11T19:38:10.825Z,24.17
2022-12-11T19:40:41.022Z,21.10
2022-12-11T19:43:09.973Z,20.83
2022-12-11T19:45:38.658Z,17.93
2022-12-11T19:48:07.458Z,19.13
2022-12-11T19:50:40.950Z,20.20
2022-12-11T19:53:09.999Z,19.57
2022-12-11T19:55:38.077Z,18.73
2022-12-11T19:58:06.604Z,19.07
2022-12-11T20:00:39.027Z,19.03
2022-12-11T20:03:07.489Z,19.30
2022-12-11T20:05:37.539Z,17.87
2022-12-11T20:08:42.345Z,18.50
2022-12-11T20:10:58.439Z,17.23
2022-12-11T20:13:26.815Z,17.23
2022-12-11T20:15:55.681Z,16.87
2022-12-11T20:18:23.887Z,17.00
2022-12-11T20:20:52.415Z,18.13
2022-12-11T20:23:23.779Z,18.37
2022-12-11T20:25:57.447Z,17.67
2022-12-11T20:28:34.367Z,18.90
2022-12-11T20:31:06.892Z,20.43
2022-12-11T20:33:41.018Z,19.60
2022-12-11T20:36:10.776Z,19.87
2022-12-11T20:38:41.791Z,19.17
2022-12-11T20:41:12.563Z,20.07
2022-12-11T20:43:41.158Z,17.63
2022-12-11T20:46:15.589Z,19.50
2022-12-11T20:48:45.686Z,20.33
2022-12-11T20:51:18.481Z,20.30
2022-12-11T20:53:57.562Z,19.33
2022-12-11T20:56:32.890Z,19.90
2022-12-11T20:59:01.125Z,19.80
2022-12-11T21:01:32.513Z,20.03
2022-12-11T21:04:01.375Z,19.67
2022-12-11T21:06:32.147Z,19.87
2022-12-11T21:09:04.137Z,20.63
2022-12-11T21:11:32.387Z,20.43
2022-12-11T21:14:00.217Z,20.07
2022-12-11T21:16:28.457Z,20.60
2022-12-11T21:18:57.494Z,20.73
2022-12-11T21:21:26.168Z,20.33
2022-12-11T21:23:54.391Z,19.90
2022-12-11T21:26:23.797Z,20.53
2022-12-11T21:28:53.834Z,20.47
2022-12-11T21:31:22.843Z,19.67
2022-12-11T21:33:50.862Z,20.93
2022-12-11T21:36:19.113Z,20.53
2022-12-11T21:38:47.591Z,19.87
2022-12-11T21:41:18.205Z,19.70
2022-12-11T21:46:37.100Z,20.07
2022-12-11T21:49:05.278Z,19.20
2022-12-11T21:51:37.971Z,19.93
2022-12-11T21:54:13.197Z,20.17
2022-12-11T21:56:42.296Z,20.17
2022-12-11T21:59:11.876Z,20.37
2022-12-11T22:01:42.270Z,19.90
2022-12-11T22:04:12.355Z,19.73
2022-12-11T22:06:42.103Z,21.53
2022-12-11T22:09:12.671Z,21.47
2022-12-11T22:11:42.857Z,21.97
2022-12-11T22:14:17.336Z,20.37
2022-12-11T22:16:45.922Z,20.73
2022-12-11T22:19:14.142Z,22.27
2022-12-11T22:21:42.663Z,20.17
2022-12-11T22:24:10.970Z,20.80
2022-12-11T22:26:39.902Z,20.23
2022-12-11T22:29:08.131Z,21.00
2022-12-11T22:31:37.483Z,21.93
2022-12-11T22:34:05.552Z,20.27
2022-12-11T22:36:33.537Z,21.83
2022-12-11T22:39:01.967Z,21.40
2022-12-11T22:41:32.637Z,21.53
2022-12-11T22:44:00.954Z,21.00
2022-12-11T22:46:30.659Z,21.17
2022-12-11T22:49:00.746Z,21.10
2022-12-11T22:51:28.720Z,20.97
2022-12-11T22:53:56.811Z,20.93
2022-12-11T22:56:27.687Z,21.10
2022-12-11T22:58:57.868Z,19.63
2022-12-11T23:01:29.130Z,19.23
2022-12-11T23:03:57.170Z,19.30
2022-12-11T23:06:29.965Z,20.13
2022-12-11T23:08:58.779Z,21.27
2022-12-11T23:11:28.922Z,21.00
2022-12-11T23:13:57.973Z,21.33
2022-12-11T23:16:28.016Z,20.27
2022-12-11T23:18:58.070Z,19.50
2022-12-11T23:21:28.196Z,21.27
2022-12-11T23:23:58.987Z,19.87
2022-12-11T23:26:28.355Z,20.37
2022-12-11T23:28:58.777Z,20.37
2022-12-11T23:31:27.262Z,20.67
2022-12-11T23:33:55.621Z,20.47
2022-12-11T23:36:24.195Z,20.43
2022-12-11T23:38:54.907Z,21.27
2022-12-11T23:41:25.079Z,20.97
2022-12-11T23:43:53.124Z,21.97
2022-12-11T23:46:24.658Z,21.77
2022-12-11T23:48:53.707Z,21.03
2022-12-11T23:51:23.287Z,20.97
2022-12-11T23:53:51.521Z,22.17
2022-12-11T23:56:22.343Z,21.47
2022-12-11T23:58:52.225Z,21.00
